Le site est en restructuration

La version 2 détaillée et complete au www.meteoquebec.com/template/

Sites météorologiques /Documentations/ Programmes:

Météo Québec
Site web version 2
Modèle de Meteotemplate

CoCoRaHS Canada
Station CAN-QC-39

METEOTEMPLATE
SITE MÉTÉO

Météo Basses-Laurentides, Qc

Météo Breakeyville, Qc

Météo Chaudière-Appalaches, Qc

Météo Chicoutimi, Qc

Météo Fredericton, N-B

Météo Haut-Richelieu, Qc

Météo Kamouraska, Qc

Météo Lanaudière, Qc

Météo Matane, Qc

Météo Montréal, Qc

Météo Mt St-Hilaire, Qc

Météo Outaouais, Qc

Météo Rimouski, Qc

Météo Ste-Famille, Qc

Météo St-Hyacinthe, Qc

Météo St-Laurent, Mtl

Météo St-Léonard, Mtl

Météo St-Hubert, Mtl

Météo St-Pascal, Qc

Météo Vaudreuil, Mtl

Météo Alerte Québec

Météo Centre

État des routes
Québec 511

Québec en Alerte

Orage Québec

Québec Vortex
chasseurs de tempêtes

Hydro Météo (info-rivière)

Avalanche Québec

Agrométéo Québec

Bulletin des agriculteurs secteur Québec

Réseau Météo-Québec

Réseau Météo des Provinces Atlantiques

Réseau Météo Ontario

Séismes Canada
l'Est du Canada

Fire Smoke Canada

Canwarn Québec

Climat Québec

Environnement Canada

MétéoMédia

Leuven Template

Réseau de transport de la Capitale (RTC)



Aucun avertissement, veille ou avis en vigueur en ce moment

Rapports METAR

   
CYQB - QUEBEC
Mise à jour: 12.12.2019 09:00
Partiellement nuageux  
Partiellement nuageux  
   Vent: NO 13 km/h
Vent: NO 13 km/h
Température: -13°C
Refroidissement éolien: -20°C
Point de rosée: -20°C
Humidité relative: 56%
Baromètre: 1035.6 hPa
Nuageux: Partiellement nuageux
visibilité: 32.2 km
Détails des nuages: Partiellement nuageux 1188.7 m,
Partiellement nuageux 7620 m
CYQB 121400Z 31007KT 260V320 20SM SCT039 SCT250 M13/M20 A3058 RMK SC3CI1 SLP364
CYRQ - TROIS-RIVIERES
Mise à jour: 12.12.2019 09:00
Dégagé  
Dégagé  
   Vent: ONO 5.6 km/h
Vent: ONO 5.6 km/h
Température: -12°C
Refroidissement éolien: -16°C
Point de rosée: -17°C
Humidité relative: 67%
Baromètre: 1036.2 hPa
Nuageux: Dégagé
visibilité: 14.5 km
Détails des nuages: Dégagé
CYRQ 121400Z AUTO 30003KT 260V060 9SM CLR M12/M17 A3060 RMK SLP368
CYGP - SHERBROOKE
Mise à jour: 12.12.2019 09:00
Généralement dégagé  
Généralement dégagé  
   Vent: Ouest 37 km/h<br />Gust to 37 km/h
Vent: Ouest 37 km/h
Gust to 37 km/h
Température: -9°C
Refroidissement éolien: -19°C
Point de rosée: -16°C
Humidité relative: 57%
Baromètre: 1020 hPa
Nuageux: Généralement dégagé
visibilité: 24.1 km
Détails des nuages: Généralement dégagé 914.4 m
CYGP 121400Z 27020G26KT 15SM FEW030 M09/M16 A3012 RMK CU2 PRESRR SLP203
CYUL - MONTREAL
Mise à jour: 12.12.2019 09:00
Généralement dégagé  
Généralement dégagé  
   Vent: Ouest 16.7 km/h
Vent: Ouest 16.7 km/h
Température: -9°C
Refroidissement éolien: -16°C
Point de rosée: -16°C
Humidité relative: 57%
Baromètre: 1037.9 hPa
Nuageux: Généralement dégagé
visibilité: 48.3 km
Détails des nuages: Généralement dégagé 914.4 m,
Généralement dégagé 7620 m
CYUL 121400Z 26009KT 230V290 30SM FEW030 FEW250 M09/M16 A3065 RMK CU1CI1 CU TR CI TR SLP383
CYND - GATINEAU
Mise à jour: 12.12.2019 09:00
Partiellement nuageux  
Partiellement nuageux  
   Vent: Ouest 7.4 km/h
Vent: Ouest 7.4 km/h
Température: -10°C
Refroidissement éolien: -14°C
Point de rosée: -14°C
Humidité relative: 73%
Baromètre: 1037.6 hPa
Nuageux: Partiellement nuageux
visibilité: 24.1 km
Détails des nuages: Généralement dégagé 3048 m,
Partiellement nuageux 7315.2 m
CYND 121400Z 26004KT 15SM FEW100 SCT240 M10/M14 A3064 RMK AC1CI2 SLP382
CYOW - OTTAWA
Mise à jour: 12.12.2019 09:00
Partiellement nuageux  
Partiellement nuageux  
   Vent: Ouest 9.3 km/h
Vent: Ouest 9.3 km/h
Température: -9°C
Refroidissement éolien: -14°C
Point de rosée: -15°C
Humidité relative: 62%
Baromètre: 1037.3 hPa
Nuageux: Partiellement nuageux
visibilité: 24.1 km
Détails des nuages: Généralement dégagé 3657.6 m,
Partiellement nuageux 7315.2 m
CYOW 121400Z 26005KT 15SM FEW120 SCT240 M09/M15 A3063 RMK AC2CC3 SLP384
CYGK - KINGSTON
Mise à jour: 12.12.2019 09:00
Généralement dégagé  
Généralement dégagé  
   Vent: NO 9.3 km/h
Vent: NO 9.3 km/h
Température: -7°C
Refroidissement éolien: -12°C
Point de rosée: -13°C
Humidité relative: 63%
Baromètre: 1037.6 hPa
Nuageux: Généralement dégagé
visibilité: 24.1 km
Détails des nuages: Généralement dégagé 1219.2 m,
Généralement dégagé 7620 m
CYGK 121400Z 31005KT 15SM FEW040 FEW250 M07/M13 A3064 RMK SC1CI1 SLP384
CYYZ - TORONTO
Mise à jour: 12.12.2019 09:00
Généralement dégagé  
Généralement dégagé  
   Vent: Sud 20.4 km/h
Vent: Sud 20.4 km/h
Température: -7°C
Refroidissement éolien: -14°C
Point de rosée: -12°C
Humidité relative: 68%
Baromètre: 1036.6 hPa
Nuageux: Généralement dégagé
visibilité: 24.1 km
Détails des nuages: Généralement dégagé 762 m,
Généralement dégagé 7924.8 m
CYYZ 121400Z 17011KT 15SM FEW025 FEW260 M07/M12 A3061 RMK SC1CI1 SC TR SLP381
CYYY - MONT-JOLI
Mise à jour: 12.12.2019 09:00
Partiellement Nuageux  
Partiellement Nuageux  
   Vent: Ouest 37 km/h<br />Gust to 37 km/h
Vent: Ouest 37 km/h
Gust to 37 km/h
Température: -15°C
Refroidissement éolien: -27°C
Point de rosée: -22°C
Humidité relative: 55%
Baromètre: 1029.5 hPa
Nuageux: Partiellement Nuageux
visibilité: 48.3 km
Détails des nuages: Généralement dégagé 152.4 m,
Partiellement Nuageux 914.4 m
CYYY 121400Z 27020G29KT 30SM FEW005 BKN030 M15/M22 A3040 RMK SF2SC5 SLP302
CWZS - AMQUI
Mise à jour: 08.07.2019 18:00
PAS actuel
  
  
   Vent: SSO 7.4 km/h
Vent: SSO 7.4 km/h
Température: 15°C
Point de rosée: 13°C
Humidité relative: 88%
CWZS 082200Z AUTO 20004KT 15/13 RMK AO1 SLP080 T01490131 50015
CWRZ - CHANDLER
Mise à jour: 12.12.2019 09:00
  
  
   Vent: Ouest 27.8 km/h<br />Gust to 27.8 km/h
Vent: Ouest 27.8 km/h
Gust to 27.8 km/h
CWRZ 121400Z AUTO 27015G23KT RMK AO1 PK WND 27027/1349 53033
CYGP - GASPE
Mise à jour: 12.12.2019 09:00
Généralement dégagé  
Généralement dégagé  
   Vent: Ouest 37 km/h<br />Gust to 37 km/h
Vent: Ouest 37 km/h
Gust to 37 km/h
Température: -9°C
Refroidissement éolien: -19°C
Point de rosée: -16°C
Humidité relative: 57%
Baromètre: 1020 hPa
Nuageux: Généralement dégagé
visibilité: 24.1 km
Détails des nuages: Généralement dégagé 914.4 m
CYGP 121400Z 27020G26KT 15SM FEW030 M09/M16 A3012 RMK CU2 PRESRR SLP203
CYBX - BLANC-SABLON
Mise à jour: 12.12.2019 09:00
Généralement dégagé  
Généralement dégagé  
   Vent: ONO 18.5 km/h
Vent: ONO 18.5 km/h
Température: -16°C
Refroidissement éolien: -25°C
Point de rosée: -23°C
Humidité relative: 55%
Baromètre: 1016.9 hPa
Nuageux: Généralement dégagé
visibilité: 24.1 km
Détails des nuages: Généralement dégagé 914.4 m
CYBX 121400Z 30010KT 15SM FEW030 M16/M23 A3003 RMK SC1 SC TR SLP175
CYAD - BAIE-JAMES
Mise à jour: 30.10.2015 16:00
PAS actuel
Light Showers, Neige  
Light Showers, Neige  
   Vent: NO 20.4 km/h<br />Gust to 20.4 km/h
Vent: NO 20.4 km/h
Gust to 20.4 km/h
visibilité: 9.7 km
CYAD 302000Z 31011G17KT 6SM -SHSN OVC012 M02/M04 A2968 RMK SC7 LAST OBS/NEXT 021200 UTC SLP066
CYMT - CHIBOUGAMAU
Mise à jour: 12.12.2019 09:00
Dégagé  
Dégagé  
   Vent: OSO 13 km/h
Vent: OSO 13 km/h
Température: -27°C
Refroidissement éolien: -37°C
Point de rosée: -30°C
Humidité relative: 76%
Baromètre: 1027.4 hPa
Nuageux: Dégagé
visibilité: 14.5 km
Détails des nuages: Dégagé
CYMT 121400Z AUTO 24007KT 9SM CLR M27/M30 A3034 RMK SLP323
CYGR - ILES-DE-LA-MADELEINE
Mise à jour: 12.12.2019 09:24
Light Showers, Neige, Low Drifting, Neige  
Light Showers, Neige, Low Drifting, Neige  
   Vent: Ouest 55.6 km/h<br />Gust to 55.6 km/h
Vent: Ouest 55.6 km/h
Gust to 55.6 km/h
visibilité: 24.1 km
CYGR 121424Z 28030G35KT 15SM -SHSN DRSN BKN015 M04/M09 A3013 RMK CU7 SLP205
CWBY - PORT-MENIER
Mise à jour: 12.12.2019 09:00
  
  
   Vent: ONO 25.9 km/h<br />Gust to 25.9 km/h
Vent: ONO 25.9 km/h
Gust to 25.9 km/h
Température: -10°C
Refroidissement éolien: -19°C
Point de rosée: -13°C
Humidité relative: 79%
CWBY 121400Z AUTO 29014G23KT M10/M13 RMK AO1 SOG 06 3013 PK WND 26030/1312 SLP169 T10961130 50004
CYZV - SEPT-ILES
Mise à jour: 12.12.2019 09:00
Low Drifting, Neige  
Low Drifting, Neige  
   Vent: ONO 29.6 km/h<br />Gust to 29.6 km/h
Vent: ONO 29.6 km/h
Gust to 29.6 km/h
visibilité: 48.3 km
CYZV 121400Z 29016G24KT 30SM DRSN FEW040 FEW080 M13/M20 A3013 RMK SC1AC1 SLP209

Script développé par  Saratoga-weather.org Adapté pour le modèle par  Weerstation Leuven

Vous trouverez notre info météo Également à:

Weather Underground

Équipement que nous utilisons:

Station de Météo
Davis VP2

Programme Météo
Weather Display

Ordinateur Météo
Asus/Intel

Provider
Rapidenet Canada

Davis VP2

Weather Display

Asus/Intel

Rapidenet Canada